Time;durP1;ratioP1;P1;durP2;ratioP2;P2;SDS_P1;SDS_P2;PMS_P1;PMS_P2;Temp;Humidity;BMP_temperature;BMP_pressure;BME280_temperature;BME280_humidity;BME280_pressure;Samples;Min_cycle;Max_cycle;Signal;HPM_P1;HPM_P2
2022/04/27 00:01:09;;;;;;;29.50;19.30;;;;;;;9.87;70.64;99402.38;5266652;28;20453;-70
2022/04/27 00:03:59;;;;;;;33.28;19.98;;;;;;;9.63;71.54;99407.91;5267109;28;20081;-70
2022/04/27 00:06:50;;;;;;;29.35;19.40;;;;;;;10.24;69.90;99408.03;5245719;28;20052;-70
2022/04/27 00:09:40;;;;;;;35.42;20.88;;;;;;;10.37;68.77;99405.22;5245913;28;20048;-70
2022/04/27 00:12:30;;;;;;;35.05;21.30;;;;;;;10.26;69.07;99402.63;5245594;28;20048;-70
2022/04/27 00:15:23;;;;;;;36.40;21.77;;;;;;;10.23;69.33;99398.41;5255563;28;20775;-69
2022/04/27 00:18:13;;;;;;;38.22;23.10;;;;;;;10.24;69.85;99408.03;5267763;28;20052;-69
2022/04/27 00:21:03;;;;;;;36.67;23.52;;;;;;;10.28;70.14;99408.66;5267342;28;20149;-69
2022/04/27 00:23:54;;;;;;;39.83;22.50;;;;;;;10.35;69.03;99410.63;5266064;28;20124;-69
2022/04/27 00:26:45;;;;;;;37.58;22.25;;;;;;;10.17;70.31;99409.53;5267143;28;20287;-69
2022/04/27 00:29:35;;;;;;;38.00;21.80;;;;;;;10.45;69.66;99415.13;5266068;28;20054;-69
2022/04/27 00:32:26;;;;;;;35.20;20.75;;;;;;;10.33;69.34;99406.41;5265840;28;20521;-69
2022/04/27 00:35:16;;;;;;;37.47;22.27;;;;;;;10.33;69.84;99414.38;5265809;28;20051;-69
2022/04/27 00:38:06;;;;;;;36.45;22.02;;;;;;;10.56;68.41;99418.56;5267219;28;20055;-69
2022/04/27 00:40:56;;;;;;;43.03;24.85;;;;;;;10.54;68.66;99411.69;5266877;28;20520;-69
2022/04/27 00:43:48;;;;;;;42.25;24.52;;;;;;;10.53;68.59;99408.22;5267199;28;20082;-69
2022/04/27 00:46:38;;;;;;;50.42;25.80;;;;;;;10.62;69.76;99414.50;5266677;28;20128;-69
2022/04/27 00:49:28;;;;;;;41.50;24.27;;;;;;;10.25;70.20;99424.78;5266919;28;20517;-69
2022/04/27 00:52:20;;;;;;;44.28;25.35;;;;;;;10.45;69.62;99426.56;5266893;28;20140;-69
2022/04/27 00:55:11;;;;;;;47.17;27.30;;;;;;;10.24;70.15;99425.75;5265310;28;20055;-69
2022/04/27 00:58:02;;;;;;;47.42;26.50;;;;;;;10.12;71.59;99401.97;5266810;28;20120;-69
2022/04/27 01:00:54;;;;;;;44.38;25.58;;;;;;;10.69;69.32;99428.91;5266388;28;20074;-69
2022/04/27 01:03:44;;;;;;;47.90;26.40;;;;;;;10.54;69.28;99425.78;5264717;28;20613;-69
2022/04/27 01:06:35;;;;;;;50.85;27.58;;;;;;;10.59;69.35;99438.63;5245444;28;20145;-69
2022/04/27 01:09:30;;;;;;;46.65;27.13;;;;;;;10.64;69.79;99436.44;5244668;28;20098;-69
2022/04/27 01:12:22;;;;;;;48.25;26.48;;;;;;;10.61;69.55;99442.00;5245235;28;20056;-69
2022/04/27 01:15:33;;;;;;;50.85;28.23;;;;;;;10.48;69.48;99450.19;5255041;28;20051;-69
2022/04/27 01:18:24;;;;;;;49.08;27.35;;;;;;;10.47;69.82;99453.81;5265428;28;20517;-69
2022/04/27 01:21:14;;;;;;;52.15;28.15;;;;;;;10.46;69.81;99446.84;5265326;28;20513;-69
2022/04/27 01:24:12;;;;;;;47.35;27.15;;;;;;;10.62;69.09;99448.97;5265090;28;20059;-69
2022/04/27 01:27:02;;;;;;;52.17;28.80;;;;;;;10.45;70.53;99442.50;5244972;28;20068;-69
2022/04/27 01:29:53;;;;;;;49.15;27.48;;;;;;;10.88;68.71;99444.06;5244623;28;20055;-69
2022/04/27 01:32:43;;;;;;;47.35;27.13;;;;;;;10.87;68.92;99444.22;5258422;28;20060;-69
2022/04/27 01:35:34;;;;;;;50.17;27.90;;;;;;;10.81;69.18;99440.28;5256434;28;20051;-70
2022/04/27 01:38:24;;;;;;;50.83;28.20;;;;;;;10.54;69.57;99440.88;5266198;28;20517;-70
2022/04/27 01:41:14;;;;;;;53.53;28.05;;;;;;;10.71;69.39;99440.22;5265770;28;20050;-70
2022/04/27 01:44:05;;;;;;;49.78;27.00;;;;;;;10.75;68.94;99433.69;5264725;28;20157;-70
2022/04/27 01:46:55;;;;;;;42.95;25.05;;;;;;;10.75;68.62;99443.44;5244796;28;20155;-70
2022/04/27 01:49:45;;;;;;;44.97;25.67;;;;;;;10.70;69.27;99451.00;5252207;28;20433;-70
2022/04/27 01:55:45;;;;;;;45.05;25.60;;;;;;;10.73;68.99;99451.56;5263945;28;20051;-70
2022/04/27 01:58:35;;;;;;;48.80;28.40;;;;;;;10.69;70.21;99444.81;5264966;28;20651;-70
2022/04/27 02:01:25;;;;;;;45.95;27.05;;;;;;;10.73;69.57;99450.72;5265317;28;20148;-70
2022/04/27 02:04:20;;;;;;;51.05;28.67;;;;;;;10.64;70.58;99454.16;5264193;28;20059;-70
2022/04/27 02:07:11;;;;;;;45.60;26.63;;;;;;;10.73;70.14;99448.91;5244319;28;20067;-70
2022/04/27 02:10:02;;;;;;;48.55;28.33;;;;;;;10.80;70.36;99454.50;5243610;28;20056;-70
2022/04/27 02:12:53;;;;;;;50.05;29.05;;;;;;;10.75;70.63;99454.91;5243627;28;20055;-70
2022/04/27 02:15:45;;;;;;;50.67;27.42;;;;;;;10.84;71.08;99457.75;5254616;28;20094;-70
2022/04/27 02:18:48;;;;;;;48.70;27.80;;;;;;;10.95;70.15;99460.28;5264284;28;20052;-70
2022/04/27 02:21:39;;;;;;;49.15;27.23;;;;;;;10.94;70.01;99459.44;5263786;28;20127;-70
2022/04/27 02:24:30;;;;;;;47.42;25.40;;;;;;;10.69;70.68;99457.25;5265173;28;20141;-70
2022/04/27 02:27:20;;;;;;;50.10;26.02;;;;;;;10.55;71.85;99453.97;5243214;28;20241;-70
2022/04/27 02:30:12;;;;;;;44.65;25.20;;;;;;;10.65;70.86;99440.75;5242904;28;20110;-70
2022/04/27 02:33:02;;;;;;;44.85;26.13;;;;;;;10.82;70.95;99453.38;5242998;28;20133;-70
2022/04/27 02:35:53;;;;;;;40.63;22.98;;;;;;;10.86;70.37;99456.63;5263276;28;20047;-70
2022/04/27 02:38:43;;;;;;;39.00;22.25;;;;;;;10.97;70.76;99463.66;5263934;28;20055;-70
2022/04/27 02:41:35;;;;;;;38.75;23.02;;;;;;;10.95;69.65;99477.03;5263847;28;20410;-70
2022/04/27 02:44:25;;;;;;;40.83;23.35;;;;;;;10.91;70.18;99456.22;5264751;28;20694;-70
2022/04/27 02:47:16;;;;;;;43.05;23.00;;;;;;;10.87;70.14;99474.22;5242923;28;20055;-70
2022/04/27 02:53:20;;;;;;;33.25;20.63;;;;;;;10.50;71.51;99460.66;5242859;28;20063;-70
2022/04/27 02:56:13;;;;;;;37.70;22.27;;;;;;;10.46;72.64;99485.75;5257732;28;20181;-70
2022/04/27 02:59:03;;;;;;;34.28;21.25;;;;;;;10.66;71.87;99482.25;5264033;28;20054;-70
2022/04/27 03:01:53;;;;;;;35.42;20.85;;;;;;;10.86;71.05;99477.00;5263824;28;20074;-71
2022/04/27 03:04:43;;;;;;;34.28;20.33;;;;;;;10.77;70.03;99471.53;5262895;28;20063;-68
2022/04/27 03:07:34;;;;;;;32.45;19.35;;;;;;;10.66;71.37;99481.38;5263651;28;20188;-69
2022/04/27 03:10:24;;;;;;;28.35;18.05;;;;;;;10.68;70.48;99468.84;5263457;28;20058;-70
2022/04/27 03:13:14;;;;;;;29.95;18.52;;;;;;;10.62;70.90;99483.47;5263590;28;20055;-70
2022/04/27 03:16:06;;;;;;;28.63;18.08;;;;;;;10.87;70.49;99490.13;5248756;28;20127;-70
2022/04/27 03:18:56;;;;;;;30.10;18.35;;;;;;;11.04;70.63;99484.19;5250267;28;20052;-70
2022/04/27 03:21:47;;;;;;;26.90;16.30;;;;;;;10.82;70.33;99481.72;5263115;28;20055;-71
2022/04/27 03:24:38;;;;;;;27.25;16.08;;;;;;;10.75;69.76;99488.53;5263168;28;20563;-70
2022/04/27 03:27:35;;;;;;;24.80;15.00;;;;;;;10.84;70.73;99485.09;5263442;28;20059;-70
2022/04/27 03:30:25;;;;;;;22.80;14.38;;;;;;;10.94;69.83;99493.94;5264198;28;20413;-70
2022/04/27 03:33:17;;;;;;;25.13;14.80;;;;;;;10.91;69.61;99486.25;5263464;28;20139;-70
2022/04/27 03:36:11;;;;;;;22.77;14.27;;;;;;;10.91;69.60;99482.75;5262872;28;20048;-71
2022/04/27 03:39:02;;;;;;;23.80;14.70;;;;;;;10.86;69.61;99484.94;5263485;28;20095;-71
2022/04/27 03:41:53;;;;;;;22.92;14.40;;;;;;;10.92;69.77;99481.78;5262749;28;20048;-68
2022/04/27 03:44:43;;;;;;;26.52;15.75;;;;;;;11.08;68.56;99489.22;5263240;28;20409;-69
2022/04/27 03:47:34;;;;;;;23.20;14.52;;;;;;;10.89;68.85;99482.88;5265752;28;20047;-69
2022/04/27 03:50:25;;;;;;;21.38;14.68;;;;;;;10.90;69.55;99483.75;5267207;28;20520;-68
2022/04/27 03:53:16;;;;;;;23.80;14.82;;;;;;;10.96;69.27;99480.53;5267066;28;20156;-68
2022/04/27 03:56:07;;;;;;;21.35;13.95;;;;;;;10.78;69.62;99496.25;5266175;28;20113;-69
2022/04/27 03:58:59;;;;;;;21.50;13.55;;;;;;;10.90;69.79;99500.50;5267025;28;20129;-68
2022/04/27 04:01:49;;;;;;;23.92;13.57;;;;;;;10.78;69.73;99502.38;5266564;28;20063;-68
2022/04/27 04:04:40;;;;;;;20.27;13.80;;;;;;;10.85;69.32;99507.16;5267203;28;20442;-68
2022/04/27 04:07:31;;;;;;;19.05;13.32;;;;;;;10.89;69.75;99497.94;5266663;28;20657;-68
2022/04/27 04:10:22;;;;;;;23.17;14.65;;;;;;;11.07;69.48;99511.44;5266941;28;20130;-68
2022/04/27 04:13:13;;;;;;;19.10;13.40;;;;;;;11.39;67.84;99513.91;5266672;28;20127;-68
2022/04/27 04:16:37;;;;;;;22.35;12.48;;;;;;;10.92;69.75;99503.00;5265888;28;20051;-68
2022/04/27 04:19:36;;;;;;;19.92;13.52;;;;;;;11.02;70.26;99520.63;5265502;28;20056;-69
2022/04/27 04:22:53;;;;;;;24.63;15.82;;;;;;;11.13;68.88;99510.91;5266596;28;20051;-68
2022/04/27 04:29:04;;;;;;;30.75;18.40;;;;;;;10.97;70.28;99535.28;5266953;28;20058;-69
2022/04/27 04:31:55;;;;;;;27.80;16.35;;;;;;;11.07;70.47;99538.81;5266369;28;20048;-68
2022/04/27 04:35:00;;;;;;;23.42;15.82;;;;;;;11.05;70.24;99538.09;5266047;28;20044;-68
2022/04/27 04:37:50;;;;;;;24.98;15.20;;;;;;;10.77;71.38;99544.97;5266069;28;20052;-69
2022/04/27 04:40:40;;;;;;;22.60;14.93;;;;;;;10.97;70.03;99546.72;5265741;28;20425;-69
2022/04/27 04:43:32;;;;;;;23.88;15.52;;;;;;;10.81;70.45;99549.88;5266089;28;20417;-69
2022/04/27 04:46:22;;;;;;;25.55;15.13;;;;;;;10.96;70.02;99562.78;5265099;28;20055;-69
2022/04/27 04:49:44;;;;;;;22.85;15.13;;;;;;;10.97;70.70;99565.31;5265878;28;20184;-66
2022/04/27 04:52:56;;;;;;;24.23;15.25;;;;;;;10.96;70.27;99573.38;5266673;28;20048;-66
2022/04/27 04:56:18;;;;;;;23.98;15.27;;;;;;;10.93;70.40;99574.50;5249882;28;20734;-67
2022/04/27 04:59:26;;;;;;;27.85;16.25;;;;;;;10.79;70.24;99577.50;5262567;28;20052;-66
2022/04/27 05:02:36;;;;;;;26.83;15.93;;;;;;;11.00;70.53;99574.81;5266331;28;20498;-66
2022/04/27 05:05:53;;;;;;;26.17;16.40;;;;;;;10.89;70.27;99580.19;5250516;28;20156;-66
2022/04/27 05:09:04;;;;;;;25.92;15.82;;;;;;;11.07;70.32;99593.72;5243241;28;20509;-66
2022/04/27 05:12:13;;;;;;;23.15;15.68;;;;;;;11.04;69.52;99587.69;5266672;28;20414;-66
2022/04/27 05:15:21;;;;;;;28.80;16.75;;;;;;;10.85;70.51;99584.09;5266366;28;20056;-66
2022/04/27 05:18:30;;;;;;;24.00;16.05;;;;;;;11.09;70.01;99605.00;5266906;28;20113;-66
2022/04/27 05:21:47;;;;;;;26.05;16.55;;;;;;;11.18;69.76;99610.38;5264754;28;20188;-66
2022/04/27 05:24:50;;;;;;;22.65;15.07;;;;;;;11.10;69.84;99607.56;5265101;28;20127;-67
2022/04/27 05:27:51;;;;;;;24.98;15.77;;;;;;;10.90;70.29;99611.09;5279407;28;20047;-66
2022/04/27 05:34:30;;;;;;;27.27;16.15;;;;;;;10.98;69.78;99590.03;5257388;28;20112;-69
2022/04/27 05:37:26;;;;;;;23.30;15.52;;;;;;;11.11;70.63;99611.88;5279202;28;20142;-68
2022/04/27 05:40:39;;;;;;;19.95;13.85;;;;;;;11.07;69.43;99606.97;5261529;28;20047;-68
2022/04/27 05:43:36;;;;;;;23.23;14.52;;;;;;;10.95;68.91;99585.81;5265063;28;20075;-67
2022/04/27 05:46:41;;;;;;;29.10;15.50;;;;;;;11.17;70.03;99632.59;5264743;28;20059;-68
2022/04/27 05:49:45;;;;;;;23.80;16.13;;;;;;;11.23;69.56;99634.72;5264945;28;20047;-68
2022/04/27 05:52:54;;;;;;;25.50;15.18;;;;;;;10.95;70.17;99641.53;5264399;28;20055;-67
2022/04/27 05:56:04;;;;;;;25.30;15.82;;;;;;;11.48;68.38;99628.09;5265034;28;20425;-68
2022/04/27 05:59:18;;;;;;;22.13;15.27;;;;;;;11.53;68.07;99638.34;5244327;28;20083;-67
2022/04/27 06:02:35;;;;;;;24.45;16.08;;;;;;;11.60;67.17;99643.97;5264415;28;20091;-67
2022/04/27 06:05:25;;;;;;;25.88;15.27;;;;;;;12.13;65.87;99647.19;5264900;28;20055;-67
2022/04/27 06:08:15;;;;;;;22.25;14.60;;;;;;;11.82;66.43;99637.56;5264170;28;20058;-67
2022/04/27 06:11:07;;;;;;;25.70;16.33;;;;;;;11.80;68.08;99648.34;5263647;28;20438;-67
2022/04/27 06:14:18;;;;;;;24.95;15.52;;;;;;;11.88;67.83;99655.66;5265388;28;20124;-67
2022/04/27 06:17:14;;;;;;;29.08;15.82;;;;;;;11.77;67.59;99645.97;5264101;28;20054;-67
2022/04/27 06:20:05;;;;;;;25.55;16.65;;;;;;;12.01;67.24;99650.09;5264690;28;20410;-67
2022/04/27 06:22:57;;;;;;;26.50;17.13;;;;;;;12.14;67.19;99640.88;5264054;28;20189;-67
2022/04/27 06:25:49;;;;;;;30.25;15.88;;;;;;;12.09;66.43;99660.91;5264877;28;20058;-67
2022/04/27 06:28:45;;;;;;;21.85;15.10;;;;;;;12.27;64.70;99661.91;5264015;28;20095;-67
2022/04/27 06:31:36;;;;;;;21.83;14.77;;;;;;;11.44;68.94;99663.88;5235396;28;20436;-67
2022/04/27 06:34:27;;;;;;;19.25;13.82;;;;;;;11.64;66.60;99664.78;5263701;28;20631;-68
2022/04/27 06:37:18;;;;;;;20.35;13.77;;;;;;;10.92;69.85;99668.31;5263631;28;20055;-67
2022/04/27 06:40:09;;;;;;;20.50;13.43;;;;;;;11.46;67.45;99639.84;5249896;28;20761;-67
2022/04/27 06:43:00;;;;;;;20.52;14.15;;;;;;;12.00;67.66;99662.56;5249763;28;20508;-67
2022/04/27 06:46:09;;;;;;;19.10;13.40;;;;;;;12.16;65.82;99675.34;5265341;28;20063;-67
2022/04/27 06:49:18;;;;;;;20.65;13.18;;;;;;;12.19;65.82;99673.25;5264947;28;20515;-67
2022/04/27 06:52:43;;;;;;;21.52;13.70;;;;;;;12.46;65.79;99679.69;5253550;28;20059;-67
2022/04/27 06:55:51;;;;;;;17.35;12.85;;;;;;;12.85;64.74;99677.88;5264418;28;20044;-67
2022/04/27 06:58:45;;;;;;;14.30;10.63;;;;;;;13.44;62.11;99677.78;5264981;28;20047;-67
2022/04/27 07:01:43;;;;;;;15.13;10.55;;;;;;;13.54;61.22;99668.78;5263264;28;20181;-67
2022/04/27 07:04:34;;;;;;;15.85;10.50;;;;;;;13.63;62.13;99691.84;5263184;28;20193;-67
2022/04/27 07:07:24;;;;;;;13.43;9.82;;;;;;;14.04;61.10;99703.06;5263398;28;20059;-67
2022/04/27 07:10:15;;;;;;;13.52;9.07;;;;;;;14.34;59.16;99685.03;5264472;28;20083;-67
2022/04/27 07:13:06;;;;;;;13.50;9.40;;;;;;;13.75;59.78;99692.53;5263653;28;20117;-67
2022/04/27 07:16:00;;;;;;;13.20;8.73;;;;;;;13.85;59.02;99703.16;5264592;28;20051;-67
2022/04/27 07:18:53;;;;;;;11.80;9.52;;;;;;;13.86;61.54;99707.47;5264702;28;20066;-67
2022/04/27 07:21:43;;;;;;;10.38;6.63;;;;;;;13.65;57.54;99706.88;5267281;28;20052;-67
2022/04/27 07:24:34;;;;;;;9.48;7.35;;;;;;;13.73;59.64;99714.97;5268418;28;20048;-67
2022/04/27 07:27:25;;;;;;;9.23;7.00;;;;;;;13.77;57.51;99713.69;5268489;28;20105;-67
2022/04/27 07:30:15;;;;;;;10.80;8.43;;;;;;;13.66;59.91;99713.88;5267865;28;20120;-67
2022/04/27 07:33:05;;;;;;;11.75;7.95;;;;;;;13.58;58.63;99723.44;5268742;28;20048;-67
2022/04/27 07:35:55;;;;;;;11.15;8.43;;;;;;;13.60;60.64;99720.63;5268416;28;20089;-67
2022/04/27 07:38:45;;;;;;;11.30;7.53;;;;;;;13.77;59.88;99721.69;5268339;28;20055;-67
2022/04/27 07:41:35;;;;;;;8.55;6.30;;;;;;;13.60;56.66;99723.28;5268054;28;20121;-67
2022/04/27 07:44:25;;;;;;;7.53;6.07;;;;;;;13.67;57.48;99719.06;5268472;28;20525;-67
2022/04/27 07:47:15;;;;;;;8.85;6.90;;;;;;;13.80;57.50;99710.72;5267415;28;20056;-66
2022/04/27 07:50:07;;;;;;;7.53;6.40;;;;;;;14.00;56.01;99725.66;5268446;28;20059;-67
2022/04/27 07:52:58;;;;;;;8.27;6.50;;;;;;;13.83;55.81;99737.94;5268145;28;20051;-66
2022/04/27 07:55:48;;;;;;;8.52;5.97;;;;;;;13.97;56.07;99733.97;5267714;28;20117;-67
2022/04/27 07:58:38;;;;;;;7.70;6.38;;;;;;;14.26;57.77;99738.28;5281508;28;20048;-66
2022/04/27 08:01:32;;;;;;;9.57;5.80;;;;;;;14.55;55.75;99743.47;5267426;28;20052;-66
2022/04/27 08:04:22;;;;;;;7.93;6.15;;;;;;;14.66;56.47;99753.94;5266306;28;20052;-67
2022/04/27 08:07:13;;;;;;;8.48;6.72;;;;;;;14.88;57.25;99754.47;5267656;28;20052;-67
2022/04/27 08:10:17;;;;;;;11.40;6.65;;;;;;;14.78;56.01;99743.88;5268026;28;20091;-66
2022/04/27 08:13:08;;;;;;;8.82;6.45;;;;;;;15.36;56.41;99756.69;5267815;28;20051;-67
2022/04/27 08:15:58;;;;;;;8.15;5.82;;;;;;;15.44;54.68;99756.78;5267905;28;20529;-66
2022/04/27 08:18:50;;;;;;;6.28;5.32;;;;;;;15.02;55.13;99749.44;5267520;28;20132;-67
2022/04/27 08:21:39;;;;;;;6.07;5.07;;;;;;;13.96;58.01;99752.75;5267006;28;20113;-66
2022/04/27 08:24:30;;;;;;;6.90;5.55;;;;;;;14.68;55.19;99756.47;5267296;28;20524;-67
2022/04/27 08:27:20;;;;;;;5.70;5.00;;;;;;;15.09;54.62;99763.00;5267357;28;20052;-66
2022/04/27 08:30:11;;;;;;;8.40;5.40;;;;;;;15.61;54.81;99773.75;5266910;28;20048;-66
2022/04/27 08:33:02;;;;;;;5.78;4.57;;;;;;;15.71;51.36;99768.34;5266567;28;20106;-67
2022/04/27 08:35:57;;;;;;;8.73;4.80;;;;;;;15.51;54.37;99771.19;5267144;28;20502;-67
2022/04/27 08:39:08;;;;;;;5.65;4.82;;;;;;;15.31;54.25;99751.00;5265515;28;20600;-66
2022/04/27 08:41:58;;;;;;;7.07;4.93;;;;;;;14.96;52.68;99758.06;5265614;28;20071;-67
2022/04/27 08:44:47;;;;;;;6.53;4.07;;;;;;;15.18;54.28;99777.28;5265756;28;20209;-67
2022/04/27 08:47:38;;;;;;;8.35;4.55;;;;;;;15.22;54.21;99778.66;5265838;28;20071;-67
2022/04/27 08:50:28;;;;;;;5.63;4.90;;;;;;;15.60;55.98;99784.63;5265448;28;20445;-67
2022/04/27 08:53:19;;;;;;;5.95;4.30;;;;;;;15.50;54.58;99749.97;5265298;28;20052;-67
2022/04/27 08:56:09;;;;;;;6.10;4.40;;;;;;;16.02;53.60;99779.38;5265722;28;20055;-67
2022/04/27 08:59:00;;;;;;;5.22;4.32;;;;;;;16.09;53.38;99772.41;5265956;28;20096;-66
2022/04/27 09:01:50;;;;;;;6.72;4.85;;;;;;;16.03;52.03;99764.19;5265102;28;20059;-67
2022/04/27 09:04:40;;;;;;;6.13;5.53;;;;;;;15.62;52.76;99780.78;5264862;28;20128;-67
2022/04/27 09:07:50;;;;;;;8.48;5.00;;;;;;;15.58;50.94;99774.06;5265027;28;20419;-67
2022/04/27 09:10:40;;;;;;;6.53;4.90;;;;;;;15.92;52.65;99776.81;5264875;28;20055;-66
2022/04/27 09:13:31;;;;;;;5.90;4.90;;;;;;;16.64;52.94;99779.94;5265175;28;20133;-67
2022/04/27 09:20:46;;;;;;;6.10;4.70;;;;;;;16.78;53.35;99778.50;5265156;28;20059;-67
2022/04/27 09:22:51;;;;;;;6.65;4.30;;;;;;;16.38;51.68;99777.34;5264572;28;20059;-67
2022/04/27 09:25:41;;;;;;;6.28;4.50;;;;;;;16.53;51.01;99755.31;5244257;28;20444;-67
2022/04/27 09:28:53;;;;;;;5.53;4.00;;;;;;;17.07;48.70;99783.38;5243793;28;20517;-67
2022/04/27 09:31:44;;;;;;;4.25;3.45;;;;;;;16.93;49.99;99778.69;5243400;28;20422;-68
2022/04/27 09:34:47;;;;;;;5.60;4.03;;;;;;;16.93;50.67;99775.19;5243377;28;20190;-67
2022/04/27 09:37:39;;;;;;;5.28;4.30;;;;;;;17.39;50.33;99787.09;5243828;28;20432;-68
2022/04/27 09:40:54;;;;;;;8.65;4.43;;;;;;;17.34;49.49;99758.09;5243382;28;20059;-68
2022/04/27 09:43:49;;;;;;;5.03;4.15;;;;;;;17.55;45.72;99772.84;5242686;28;20059;-68
2022/04/27 09:46:40;;;;;;;4.53;4.07;;;;;;;17.07;51.15;99783.38;5243435;28;20104;-66
2022/04/27 09:49:33;;;;;;;4.97;3.95;;;;;;;16.50;49.12;99787.78;5243665;28;20162;-66
2022/04/27 09:52:27;;;;;;;5.78;4.10;;;;;;;17.34;49.33;99784.91;5243147;28;20131;-67
2022/04/27 09:55:19;;;;;;;5.75;4.65;;;;;;;17.04;49.83;99788.25;5243144;28;20049;-67
2022/04/27 09:58:13;;;;;;;7.18;4.80;;;;;;;17.55;49.84;99791.63;5243102;28;20053;-67
2022/04/27 10:01:04;;;;;;;4.75;4.10;;;;;;;18.02;46.90;99778.28;5244300;28;20051;-68
2022/04/27 10:03:57;;;;;;;5.40;4.50;;;;;;;19.06;47.65;99776.25;5244022;28;20049;-68
2022/04/27 10:06:48;;;;;;;8.40;5.47;;;;;;;19.23;46.57;99785.84;5244481;28;20056;-68
2022/04/27 10:09:39;;;;;;;6.85;5.38;;;;;;;18.45;46.71;99775.28;5244225;28;20071;-68
2022/04/27 10:12:38;;;;;;;7.53;5.57;;;;;;;17.67;48.04;99786.72;5244246;28;20556;-67
2022/04/27 10:15:29;;;;;;;;;;;;;;;17.45;49.24;99785.56;5258303;28;20186;-68
2022/04/27 10:18:20;;;;;;;7.10;5.03;;;;;;;17.46;47.79;99787.25;5244606;28;19927;-67
2022/04/27 10:21:11;;;;;;;7.10;5.07;;;;;;;17.64;48.52;99773.66;5244157;28;20060;-69
2022/04/27 10:24:02;;;;;;;9.07;5.85;;;;;;;17.82;48.69;99787.75;5244629;28;20120;-67
2022/04/27 10:26:52;;;;;;;7.88;5.63;;;;;;;16.93;47.43;99773.34;5257345;28;20051;-67
2022/04/27 10:29:47;;;;;;;9.00;5.50;;;;;;;16.85;49.78;99784.88;5243989;28;20045;-67
2022/04/27 10:32:45;;;;;;;6.82;5.57;;;;;;;17.24;47.41;99781.56;5243793;28;20053;-67
2022/04/27 10:35:39;;;;;;;8.35;5.78;;;;;;;17.47;48.48;99786.25;5244059;28;20083;-67
2022/04/27 10:38:29;;;;;;;8.68;6.00;;;;;;;17.42;48.99;99785.91;5243891;28;20091;-67
2022/04/27 10:41:19;;;;;;;6.50;5.68;;;;;;;17.03;49.20;99762.47;5243890;28;20443;-67
2022/04/27 10:44:09;;;;;;;9.98;7.03;;;;;;;17.59;48.41;99774.16;5243904;28;20087;-67
2022/04/27 10:47:18;;;;;;;7.30;6.15;;;;;;;17.51;49.03;99779.53;5243983;28;20514;-67
2022/04/27 10:50:18;;;;;;;7.63;6.57;;;;;;;17.71;47.94;99780.84;5243854;28;20095;-67
2022/04/27 10:53:19;;;;;;;9.90;7.18;;;;;;;18.33;47.96;99779.34;5243786;28;20149;-67
2022/04/27 10:56:25;;;;;;;7.68;6.07;;;;;;;17.90;46.91;99768.09;5246576;28;20048;-67
2022/04/27 10:59:49;;;;;;;9.00;6.75;;;;;;;18.17;47.57;99775.69;5248063;28;20059;-67
2022/04/27 11:02:44;;;;;;;8.02;6.55;;;;;;;18.65;45.51;99778.34;5261335;28;20137;-67
2022/04/27 11:05:35;;;;;;;8.43;6.80;;;;;;;18.80;45.71;99770.38;5248450;28;20048;-67
2022/04/27 11:08:39;;;;;;;9.07;7.13;;;;;;;18.14;44.47;99781.41;5248719;28;20642;-67
2022/04/27 11:11:31;;;;;;;8.25;6.45;;;;;;;18.39;46.67;99778.66;5247664;28;20510;-67
2022/04/27 11:14:27;;;;;;;6.95;5.82;;;;;;;17.57;48.11;99776.16;5248041;28;20059;-68
2022/04/27 11:17:30;;;;;;;8.68;6.88;;;;;;;17.44;47.98;99774.00;5247026;28;20056;-68
2022/04/27 11:20:23;;;;;;;7.65;6.85;;;;;;;17.10;48.13;99780.38;5247755;28;20133;-67
2022/04/27 11:23:22;;;;;;;9.23;7.40;;;;;;;16.90;50.06;99779.84;5247931;28;20198;-67
2022/04/27 11:26:16;;;;;;;7.97;6.85;;;;;;;17.31;49.63;99774.50;5247828;28;20060;-68
2022/04/27 11:29:07;;;;;;;8.52;6.63;;;;;;;17.14;47.61;99783.56;5248029;28;20484;-67
2022/04/27 11:31:58;;;;;;;7.93;6.47;;;;;;;17.25;47.36;99783.25;5247267;28;20053;-67
2022/04/27 11:34:49;;;;;;;8.77;6.68;;;;;;;17.44;47.60;99789.25;5255362;28;20063;-68
2022/04/27 11:37:39;;;;;;;8.20;6.30;;;;;;;17.75;46.22;99776.00;5267896;28;20055;-70
2022/04/27 11:40:36;;;;;;;8.95;7.20;;;;;;;17.13;48.43;99777.38;5267988;28;20131;-68
2022/04/27 11:43:32;;;;;;;8.43;6.80;;;;;;;17.15;48.41;99777.19;5267595;28;20059;-67
2022/04/27 11:46:22;;;;;;;7.82;7.00;;;;;;;17.23;48.55;99763.81;5268263;28;20109;-68
2022/04/27 11:49:12;;;;;;;9.25;7.65;;;;;;;16.88;49.30;99778.34;5266736;28;20081;-68
2022/04/27 11:52:15;;;;;;;11.25;7.82;;;;;;;16.40;50.64;99771.84;5267521;28;20425;-68
2022/04/27 11:55:10;;;;;;;11.00;7.38;;;;;;;16.68;49.74;99775.09;5267827;28;20113;-68
2022/04/27 11:58:02;;;;;;;11.00;7.60;;;;;;;16.56;50.42;99779.09;5267851;28;20161;-68
2022/04/27 12:00:59;;;;;;;28.27;8.00;;;;;;;16.83;50.42;99770.81;5267695;28;20052;-67
2022/04/27 12:03:49;;;;;;;9.20;6.68;;;;;;;16.66;49.56;99782.47;5267240;28;20055;-69
2022/04/27 12:06:40;;;;;;;9.35;7.30;;;;;;;16.79;48.46;99765.97;5266699;28;20129;-67
2022/04/27 12:09:31;;;;;;;7.93;6.35;;;;;;;17.01;48.22;99777.84;5268227;28;20122;-67
2022/04/27 12:12:22;;;;;;;8.35;6.70;;;;;;;17.24;48.96;99778.88;5266878;28;20146;-68
2022/04/27 12:15:14;;;;;;;9.80;6.90;;;;;;;17.08;48.27;99773.50;5267563;28;20067;-68
2022/04/27 12:18:05;;;;;;;8.13;6.05;;;;;;;17.23;48.93;99773.69;5267268;28;20051;-68
2022/04/27 12:20:58;;;;;;;10.60;7.07;;;;;;;16.84;52.16;99771.66;5267167;28;20048;-67
2022/04/27 12:23:48;;;;;;;12.60;7.05;;;;;;;17.30;49.65;99777.38;5267503;28;20075;-67
2022/04/27 12:26:41;;;;;;;11.57;7.03;;;;;;;17.38;50.13;99770.19;5267378;28;20074;-68
2022/04/27 12:29:33;;;;;;;9.52;7.38;;;;;;;17.36;48.80;99777.53;5266499;28;20055;-68
2022/04/27 12:32:23;;;;;;;10.27;7.55;;;;;;;17.58;47.38;99776.03;5265903;28;20118;-69
2022/04/27 12:38:58;;;;;;;8.93;6.97;;;;;;;18.17;46.63;99773.03;5243224;28;20094;-66
2022/04/27 12:41:50;;;;;;;9.85;6.75;;;;;;;18.22;44.11;99773.34;5242884;28;20098;-67
2022/04/27 12:44:42;;;;;;;8.55;6.25;;;;;;;18.30;46.31;99767.09;5266736;28;20425;-66
2022/04/27 12:47:45;;;;;;;11.00;6.68;;;;;;;18.64;43.85;99764.09;5265673;28;20129;-70
2022/04/27 12:50:48;;;;;;;8.43;6.65;;;;;;;18.21;44.26;99762.78;5265372;28;20494;-69
2022/04/27 12:53:39;;;;;;;8.85;6.78;;;;;;;18.30;46.70;99759.88;5266068;28;20051;-68
2022/04/27 12:56:34;;;;;;;7.57;6.53;;;;;;;18.37;45.59;99753.81;5266708;28;20066;-69
2022/04/27 12:59:25;;;;;;;8.23;6.60;;;;;;;18.19;46.60;99765.63;5266706;28;20055;-69
2022/04/27 13:02:17;;;;;;;10.68;6.65;;;;;;;18.27;46.04;99762.91;5266214;28;20051;-69
2022/04/27 13:05:10;;;;;;;9.52;6.82;;;;;;;18.20;45.92;99759.25;5266246;28;20073;-68
2022/04/27 13:08:01;;;;;;;7.60;6.00;;;;;;;17.63;47.39;99759.41;5266059;28;20138;-70
2022/04/27 13:14:03;;;;;;;8.68;6.90;;;;;;;17.61;48.09;99758.72;5263883;28;20058;-70
2022/04/27 13:16:54;;;;;;;11.13;6.57;;;;;;;18.18;46.32;99768.47;5265198;28;20132;-68
2022/04/27 13:19:44;;;;;;;8.98;5.68;;;;;;;18.17;45.86;99756.91;5265460;28;20534;-70
2022/04/27 13:22:35;;;;;;;7.13;6.40;;;;;;;18.35;45.69;99753.16;5265460;28;20575;-71
2022/04/27 13:25:25;;;;;;;9.18;7.10;;;;;;;18.58;45.44;99756.72;5265337;28;20051;-68
2022/04/27 13:28:15;;;;;;;8.65;7.00;;;;;;;18.28;45.69;99755.72;5266026;28;20097;-70
2022/04/27 13:31:07;;;;;;;11.68;6.75;;;;;;;18.15;46.60;99758.97;5265146;28;20101;-71
2022/04/27 13:33:57;;;;;;;9.00;7.18;;;;;;;18.35;46.82;99750.50;5265447;28;20055;-72
2022/04/27 13:36:47;;;;;;;8.70;6.63;;;;;;;18.25;44.93;99750.69;5265562;28;20066;-69
2022/04/27 13:39:37;;;;;;;8.52;6.35;;;;;;;18.93;45.69;99739.22;5265063;28;20102;-70
2022/04/27 13:42:28;;;;;;;8.00;6.68;;;;;;;19.38;45.29;99752.81;5264425;28;20126;-68
2022/04/27 13:45:19;;;;;;;8.77;6.75;;;;;;;19.00;45.76;99750.09;5265330;28;20071;-69
2022/04/27 13:48:10;;;;;;;8.20;6.80;;;;;;;18.74;44.72;99734.31;5265139;28;20044;-69
2022/04/27 13:51:01;;;;;;;7.50;5.80;;;;;;;18.94;43.81;99740.03;5264509;28;20055;-69
2022/04/27 13:53:52;;;;;;;8.48;6.50;;;;;;;19.01;45.22;99746.41;5264833;28;20055;-70